WM805 / F-GPYF 7700 Squawk Report (3rd of December, 2021)

Aircraft AT45 Reg No. F-GPYF Age 25 years old
Model ATR 42 Turboprop engines 2 First flight 24-01-96
Registered 06-19 Rollout 01-96 Delivered 29-04-96
Construction No. 495 Line No. N/A Series 512
ADSHEX 393F05 Airline name Air Antilles Owner N/A
Airfield based Cayenne~French Guiana~F-O First tracked N/A

Flight history for F-GPYF

Route Flight No Date Playback
Le Raizet (PTP) - Le Lamentin (FDF) 3S221 2022-01-11 17:58:00
Grand Case (SFG) - Le Raizet (PTP) N/A 2022-01-09 00:04:00
Princess Juliana Intl (SXM) - Le Raizet (PTP) N/A 2022-01-08 00:35:00
V C Bird Intl (ANU) - Princess Juliana Intl (SXM) N/A 2022-01-07 19:37:00
???? N/A 2022-01-07 18:13:00
???? N/A 2022-01-07 15:43:00
Princess Juliana Intl (SXM) - V C Bird Intl (ANU) N/A 2022-01-07 15:13:00
Le Raizet (PTP) - Princess Juliana Intl (SXM) N/A 2022-01-07 13:15:00
Le Raizet (PTP) - Grand Case (SFG) N/A 2022-01-06 22:01:00
Princess Juliana Intl (SXM) - Le Raizet (PTP) N/A 2022-01-05 23:42:00
???? N/A 2022-01-05 23:23:00
???? N/A 2022-01-05 22:26:00
???? N/A 2022-01-05 20:11:00
Princess Juliana Intl (SXM) - V C Bird Intl (ANU) N/A 2022-01-05 18:08:00
Le Raizet (PTP) - Princess Juliana Intl (SXM) N/A 2022-01-05 16:29:00
???? N/A 2022-01-05 01:02:00
Las Américas Intl (SDQ) - Le Raizet (PTP) N/A 2022-01-04 23:33:00
Grand Case (SFG) - Le Raizet (PTP) N/A 2022-01-04 21:56:00
Le Raizet (PTP) - Grand Case (SFG) N/A 2022-01-04 21:16:00
???? N/A 2022-01-04 19:09:00
Time Lat Lon Altitude Heading Speed Vertical Rate
2021-12-03 13:10:24 GMT 16.260853 -61.519882 0 0 0 0
2021-12-03 13:10:11 GMT 16.261047 -61.519825 0 0 0 0
2021-12-03 13:10:01 GMT 16.261093 -61.519825 0 0 0 0
2021-12-03 13:09:52 GMT 16.261116 -61.519810 0 0 0 0
2021-12-03 13:09:21 GMT 16.259859 -61.519268 0 0 0 0
2021-12-03 13:09:13 GMT 16.259811 -61.519268 0 0 0 0
2021-12-03 13:08:52 GMT 16.259579 -61.519318 0 0 0 0
2021-12-03 13:08:30 GMT 16.259583 -61.519341 0 0 0 0
2021-12-03 13:08:19 GMT 16.260977 -61.519611 0 0 0 0
2021-12-03 13:08:09 GMT 16.259766 -61.519440 0 0 0 0
2021-12-03 13:08:00 GMT 16.259811 -61.519512 0 0 0 0
2021-12-03 13:07:48 GMT 16.259953 -61.519562 0 0 0 0
2021-12-03 13:07:39 GMT 16.260040 -61.519630 0 0 0 0
2021-12-03 13:07:28 GMT 16.260092 -61.519661 0 0 0 0
2021-12-03 13:07:17 GMT 16.260223 -61.519726 0 0 0 0
2021-12-03 13:07:07 GMT 16.260315 -61.519775 0 0 0 0
2021-12-03 13:06:55 GMT 16.260464 -61.519611 0 0 0 0
2021-12-03 13:06:43 GMT 16.260464 -61.519562 0 0 0 0
2021-12-03 13:06:35 GMT 16.260418 -61.519562 0 0 0 0
2021-12-03 13:06:22 GMT 16.260361 -61.519535 0 0 0 0
2021-12-03 13:06:10 GMT 16.260315 -61.519485 0 0 0 0
2021-12-03 13:05:50 GMT 16.260452 -61.519630 0 0 0 0
2021-12-03 13:05:39 GMT 16.260406 -61.519585 0 0 0 0
2021-12-03 13:05:22 GMT 16.260370 -61.519562 0 0 0 0
2021-12-03 13:05:08 GMT 16.260361 -61.519585 0 0 0 0
2021-12-03 13:04:57 GMT 16.259628 -61.519100 0 0 0 0
2021-12-03 13:04:47 GMT 16.259674 -61.519196 0 0 0 0
2021-12-03 13:04:13 GMT 16.259998 -61.519905 0 0 0 0
2021-12-03 13:04:06 GMT 16.260544 -61.519825 0 0 0 0
2021-12-03 13:03:15 GMT 16.259995 -61.520355 0 0 35 0
2021-12-03 13:03:14 GMT 16.259998 -61.520348 0 0 0 0
2021-12-03 13:03:02 GMT 16.260269 -61.520161 0 0 0 0
2021-12-03 13:02:51 GMT 16.260279 -61.520149 0 0 0 0
2021-12-03 13:02:36 GMT 16.261276 -61.520115 0 180 1 64
2021-12-03 13:02:30 GMT 16.260406 -61.519871 0 0 0 0
2021-12-03 13:02:18 GMT 16.260557 -61.519855 0 0 0 0
2021-12-03 13:02:04 GMT 16.260498 -61.519825 0 0 0 0
We lost coverage of the aircraft here for a total of 10 minutes
2021-12-03 12:51:46 GMT 16.261068 -61.519623 0 180 0 64
2021-12-03 12:51:21 GMT 16.262627 -61.518967 0 180 0 64
We lost coverage of the aircraft here for a total of 13 minutes
2021-12-03 12:38:15 GMT 16.257113 -61.520054 0 180 2 64
2021-12-03 12:38:12 GMT 16.259766 -61.519440 0 0 0 0
2021-12-03 12:38:02 GMT 16.258942 -61.519485 0 180 1 0
2021-12-03 12:37:47 GMT 16.257439 -61.518974 0 180 1 0
2021-12-03 12:37:37 GMT 16.257717 -61.519024 0 0 35 0
2021-12-03 12:36:35 GMT 16.261162 -61.519268 0 0 0 0
2021-12-03 12:36:22 GMT 16.260836 -61.519760 0 0 0 0
2021-12-03 12:36:11 GMT 16.260818 -61.519825 0 0 0 0
2021-12-03 12:36:04 GMT 16.260910 -61.519920 0 0 0 0
2021-12-03 12:35:50 GMT 16.260544 -61.520065 0 0 0 0
2021-12-03 12:35:42 GMT 16.260509 -61.520103 0 0 0 0
2021-12-03 12:35:31 GMT 16.260509 -61.519855 0 0 0 0
2021-12-03 12:35:20 GMT 16.260498 -61.519871 0 0 0 0
2021-12-03 12:35:00 GMT 16.260498 -61.519825 0 0 0 0
2021-12-03 12:34:51 GMT 16.260406 -61.519871 0 0 0 0
2021-12-03 12:34:39 GMT 16.260324 -61.519905 0 0 0 0
2021-12-03 12:34:29 GMT 16.260279 -61.519955 0 0 0 0
2021-12-03 12:34:17 GMT 16.260223 -61.519920 0 0 0 0
2021-12-03 12:34:08 GMT 16.260178 -61.519920 0 0 0 0
2021-12-03 12:33:59 GMT 16.259720 -61.519760 0 0 0 0
2021-12-03 12:33:47 GMT 16.259766 -61.519760 0 0 0 0
2021-12-03 12:33:37 GMT 16.259905 -61.519760 0 0 0 0
2021-12-03 12:33:25 GMT 16.260279 -61.519760 0 0 0 0
2021-12-03 12:33:16 GMT 16.260590 -61.519920 0 0 0 0
2021-12-03 12:33:04 GMT 16.260605 -61.519855 0 0 0 0
2021-12-03 12:32:54 GMT 16.260544 -61.519871 0 0 0 0
2021-12-03 12:31:41 GMT 16.260151 -61.519600 0 104 4 -448
2021-12-03 12:31:34 GMT 16.260372 -61.519798 0 0 0 0
2021-12-03 12:31:11 GMT 16.260132 -61.519630 0 0 0 0
2021-12-03 12:31:05 GMT 16.260223 -61.519630 0 0
2021-12-03 12:30:57 GMT 16.260569 -61.519672 0 0
2021-12-03 12:30:45 GMT 16.260801 -61.519733 0 0
2021-12-03 12:30:36 GMT 16.260921 -61.519836 0 0
2021-12-03 12:30:25 GMT 16.260372 -61.520256 0 0
2021-12-03 12:30:14 GMT 16.260231 -61.519981 0 0
2021-12-03 12:30:03 GMT 16.260532 -61.519814 0 0
2021-12-03 12:29:53 GMT 16.260546 -61.519794 0 0
2021-12-03 12:29:43 GMT 16.260544 -61.519764 0 0
2021-12-03 12:29:33 GMT 16.260464 -61.519733 0 0

Making use of Plane Finder data

You are free to use the raw flight data, aircraft information and images provided in this report for your own purposes provided the data is correctly attributed to Plane Finder. We ask that you please credit Plane Finder and link to planefinder.net in close proximity to the content.

Optionally one of the following logos (no smaller then 150x24px) can be used and must link to planefinder.net

Embedding the Plane Finder map

You are welcome to embed the Plane Finder playback map on your website to offer visitors a more interactive experience. We suggest using the following HTML code:

<iframe src="//planefinder.net/data/report/WM805-F-GPYF-7700-squawk-2021-12-03/map" width="800" height="600" seamless="seamless"></iframe>

Where our data comes from

Plane Finder has a global network of data feeds and antenna radars that receive data broadcast directly from aircraft. The primary technologies used are ADS-B and MLAT. We also show feeds from the FAA and a FLARM glider feed.

Click here to find out more about the Plane Finder network.

How we collect our data